sensor_id;sensor_type;location;lat;lon;timestamp;temperature;humidity
4934;DHT22;2482;49.154;8.254;2024-01-16T00:01:07;-0.90;99.90
4934;DHT22;2482;49.154;8.254;2024-01-16T00:03:39;-0.90;99.90
4934;DHT22;2482;49.154;8.254;2024-01-16T00:06:13;-0.80;99.90
4934;DHT22;2482;49.154;8.254;2024-01-16T00:09:12;-0.90;99.90
4934;DHT22;2482;49.154;8.254;2024-01-16T00:11:43;-0.90;99.90
4934;DHT22;2482;49.154;8.254;2024-01-16T00:14:13;-0.90;99.90
4934;DHT22;2482;49.154;8.254;2024-01-16T00:16:47;-0.80;99.90
4934;DHT22;2482;49.154;8.254;2024-01-16T00:19:22;-0.80;99.90
4934;DHT22;2482;49.154;8.254;2024-01-16T00:21:53;-0.80;99.90
4934;DHT22;2482;49.154;8.254;2024-01-16T00:24:32;-0.70;99.90
4934;DHT22;2482;49.154;8.254;2024-01-16T00:27:07;-0.60;99.90
4934;DHT22;2482;49.154;8.254;2024-01-16T00:29:41;-0.60;99.90
4934;DHT22;2482;49.154;8.254;2024-01-16T00:32:14;-0.60;99.90
4934;DHT22;2482;49.154;8.254;2024-01-16T00:34:43;-0.60;99.90
4934;DHT22;2482;49.154;8.254;2024-01-16T00:37:13;-0.60;99.90
4934;DHT22;2482;49.154;8.254;2024-01-16T00:39:44;-0.60;99.90
4934;DHT22;2482;49.154;8.254;2024-01-16T00:42:20;-0.60;99.90
4934;DHT22;2482;49.154;8.254;2024-01-16T00:44:48;-0.50;99.90
4934;DHT22;2482;49.154;8.254;2024-01-16T00:47:16;-0.60;99.90
4934;DHT22;2482;49.154;8.254;2024-01-16T00:49:46;-0.60;99.90
4934;DHT22;2482;49.154;8.254;2024-01-16T00:52:16;-0.70;99.90
4934;DHT22;2482;49.154;8.254;2024-01-16T00:54:46;-0.60;99.90
4934;DHT22;2482;49.154;8.254;2024-01-16T00:57:23;-0.60;99.90
4934;DHT22;2482;49.154;8.254;2024-01-16T00:59:56;-0.70;99.90
4934;DHT22;2482;49.154;8.254;2024-01-16T01:02:29;-0.70;99.90
4934;DHT22;2482;49.154;8.254;2024-01-16T01:05:04;-0.70;99.90
4934;DHT22;2482;49.154;8.254;2024-01-16T01:07:35;-0.80;99.90
4934;DHT22;2482;49.154;8.254;2024-01-16T01:10:12;-0.90;99.90
4934;DHT22;2482;49.154;8.254;2024-01-16T01:12:42;-0.90;99.90
4934;DHT22;2482;49.154;8.254;2024-01-16T01:15:15;-0.90;99.90
4934;DHT22;2482;49.154;8.254;2024-01-16T01:17:51;-0.90;99.90
4934;DHT22;2482;49.154;8.254;2024-01-16T01:20:21;-1.00;99.90
4934;DHT22;2482;49.154;8.254;2024-01-16T01:22:52;-1.00;99.90
4934;DHT22;2482;49.154;8.254;2024-01-16T01:25:25;-1.00;99.90
4934;DHT22;2482;49.154;8.254;2024-01-16T01:27:55;-1.00;99.90
4934;DHT22;2482;49.154;8.254;2024-01-16T01:30:32;-1.10;99.90
4934;DHT22;2482;49.154;8.254;2024-01-16T01:33:08;-1.10;99.90
4934;DHT22;2482;49.154;8.254;2024-01-16T01:35:47;-1.10;99.90
4934;DHT22;2482;49.154;8.254;2024-01-16T01:38:20;-1.10;99.90
4934;DHT22;2482;49.154;8.254;2024-01-16T01:40:52;-1.10;99.90
4934;DHT22;2482;49.154;8.254;2024-01-16T01:43:24;-1.00;99.90
4934;DHT22;2482;49.154;8.254;2024-01-16T01:46:20;-1.00;99.90
4934;DHT22;2482;49.154;8.254;2024-01-16T01:48:56;-1.10;99.90
4934;DHT22;2482;49.154;8.254;2024-01-16T01:51:36;-1.10;99.90
4934;DHT22;2482;49.154;8.254;2024-01-16T01:54:06;-1.10;99.90
4934;DHT22;2482;49.154;8.254;2024-01-16T01:56:47;-1.10;99.90
4934;DHT22;2482;49.154;8.254;2024-01-16T01:59:19;-1.10;99.90
4934;DHT22;2482;49.154;8.254;2024-01-16T02:01:58;-1.10;99.90
4934;DHT22;2482;49.154;8.254;2024-01-16T02:04:29;-1.00;99.90
4934;DHT22;2482;49.154;8.254;2024-01-16T02:06:58;-1.00;99.90
4934;DHT22;2482;49.154;8.254;2024-01-16T02:09:32;-1.00;99.90
4934;DHT22;2482;49.154;8.254;2024-01-16T02:12:04;-1.00;99.90
4934;DHT22;2482;49.154;8.254;2024-01-16T02:14:35;-1.00;99.90
4934;DHT22;2482;49.154;8.254;2024-01-16T02:17:06;-1.00;99.90
4934;DHT22;2482;49.154;8.254;2024-01-16T02:19:42;-1.00;99.90
4934;DHT22;2482;49.154;8.254;2024-01-16T02:22:19;-0.90;99.90
4934;DHT22;2482;49.154;8.254;2024-01-16T02:24:53;-0.90;99.90
4934;DHT22;2482;49.154;8.254;2024-01-16T02:27:24;-0.90;99.90
4934;DHT22;2482;49.154;8.254;2024-01-16T02:29:52;-0.90;99.90
4934;DHT22;2482;49.154;8.254;2024-01-16T02:32:29;-0.90;99.90
4934;DHT22;2482;49.154;8.254;2024-01-16T02:34:57;-0.90;99.90
4934;DHT22;2482;49.154;8.254;2024-01-16T02:37:31;-0.90;99.90
4934;DHT22;2482;49.154;8.254;2024-01-16T02:40:02;-0.90;99.90
4934;DHT22;2482;49.154;8.254;2024-01-16T02:42:35;-0.90;99.90
4934;DHT22;2482;49.154;8.254;2024-01-16T02:45:06;-0.90;99.90
4934;DHT22;2482;49.154;8.254;2024-01-16T02:47:45;-0.90;99.90
4934;DHT22;2482;49.154;8.254;2024-01-16T02:50:26;-1.00;99.90
4934;DHT22;2482;49.154;8.254;2024-01-16T02:52:57;-1.10;99.90
4934;DHT22;2482;49.154;8.254;2024-01-16T02:55:28;-1.20;99.90
4934;DHT22;2482;49.154;8.254;2024-01-16T02:58:09;-1.30;99.90
4934;DHT22;2482;49.154;8.254;2024-01-16T03:00:42;-1.40;99.90
4934;DHT22;2482;49.154;8.254;2024-01-16T03:03:14;-1.60;99.90
4934;DHT22;2482;49.154;8.254;2024-01-16T03:05:42;-1.60;99.90
4934;DHT22;2482;49.154;8.254;2024-01-16T03:08:13;-1.70;99.90
4934;DHT22;2482;49.154;8.254;2024-01-16T03:10:44;-1.80;99.90
4934;DHT22;2482;49.154;8.254;2024-01-16T03:13:28;-1.70;99.90
4934;DHT22;2482;49.154;8.254;2024-01-16T03:15:58;-1.90;99.90
4934;DHT22;2482;49.154;8.254;2024-01-16T03:18:26;-1.70;99.90
4934;DHT22;2482;49.154;8.254;2024-01-16T03:21:08;-1.70;99.90
4934;DHT22;2482;49.154;8.254;2024-01-16T03:23:40;-1.60;99.90
4934;DHT22;2482;49.154;8.254;2024-01-16T03:26:16;-1.80;99.90
4934;DHT22;2482;49.154;8.254;2024-01-16T03:28:55;-2.00;99.90
4934;DHT22;2482;49.154;8.254;2024-01-16T03:31:30;-2.10;99.90
4934;DHT22;2482;49.154;8.254;2024-01-16T03:33:59;-2.30;99.90
4934;DHT22;2482;49.154;8.254;2024-01-16T03:36:32;-2.30;99.90
4934;DHT22;2482;49.154;8.254;2024-01-16T03:39:05;-2.10;99.90
4934;DHT22;2482;49.154;8.254;2024-01-16T03:41:36;-2.20;99.90
4934;DHT22;2482;49.154;8.254;2024-01-16T03:44:04;-2.30;99.90
4934;DHT22;2482;49.154;8.254;2024-01-16T03:46:38;-2.30;99.90
4934;DHT22;2482;49.154;8.254;2024-01-16T03:49:09;-2.20;99.90
4934;DHT22;2482;49.154;8.254;2024-01-16T03:51:39;-2.00;99.90
4934;DHT22;2482;49.154;8.254;2024-01-16T03:54:18;-1.90;99.90
4934;DHT22;2482;49.154;8.254;2024-01-16T03:56:49;-1.80;99.90
4934;DHT22;2482;49.154;8.254;2024-01-16T03:59:27;-1.80;99.90
4934;DHT22;2482;49.154;8.254;2024-01-16T04:01:59;-1.70;99.90
4934;DHT22;2482;49.154;8.254;2024-01-16T04:04:33;-1.70;99.90
4934;DHT22;2482;49.154;8.254;2024-01-16T04:07:00;-1.70;99.90
4934;DHT22;2482;49.154;8.254;2024-01-16T04:09:31;-1.60;99.90
4934;DHT22;2482;49.154;8.254;2024-01-16T04:12:04;-1.60;99.90
4934;DHT22;2482;49.154;8.254;2024-01-16T04:14:32;-1.70;99.90
4934;DHT22;2482;49.154;8.254;2024-01-16T04:17:00;-1.50;99.90
4934;DHT22;2482;49.154;8.254;2024-01-16T04:19:40;-1.50;99.90
4934;DHT22;2482;49.154;8.254;2024-01-16T04:22:09;-1.50;99.90
4934;DHT22;2482;49.154;8.254;2024-01-16T04:24:39;-1.60;99.90
4934;DHT22;2482;49.154;8.254;2024-01-16T04:27:09;-1.60;99.90
4934;DHT22;2482;49.154;8.254;2024-01-16T04:29:39;-1.60;99.90
4934;DHT22;2482;49.154;8.254;2024-01-16T04:32:16;-1.60;99.90
4934;DHT22;2482;49.154;8.254;2024-01-16T04:34:47;-1.60;99.90
4934;DHT22;2482;49.154;8.254;2024-01-16T04:37:23;-1.60;99.90
4934;DHT22;2482;49.154;8.254;2024-01-16T04:39:53;-1.60;99.90
4934;DHT22;2482;49.154;8.254;2024-01-16T04:42:26;-1.50;99.90
4934;DHT22;2482;49.154;8.254;2024-01-16T04:44:54;-1.50;99.90
4934;DHT22;2482;49.154;8.254;2024-01-16T04:47:22;-1.60;99.90
4934;DHT22;2482;49.154;8.254;2024-01-16T04:49:50;-1.60;99.90
4934;DHT22;2482;49.154;8.254;2024-01-16T04:52:19;-1.70;99.90
4934;DHT22;2482;49.154;8.254;2024-01-16T04:54:47;-1.70;99.90
4934;DHT22;2482;49.154;8.254;2024-01-16T04:57:18;-1.70;99.90
4934;DHT22;2482;49.154;8.254;2024-01-16T04:59:50;-1.80;99.90
4934;DHT22;2482;49.154;8.254;2024-01-16T05:02:18;-1.80;99.90
4934;DHT22;2482;49.154;8.254;2024-01-16T05:04:51;-1.90;99.90
4934;DHT22;2482;49.154;8.254;2024-01-16T05:07:23;-1.80;99.90
4934;DHT22;2482;49.154;8.254;2024-01-16T05:09:51;-1.90;99.90
4934;DHT22;2482;49.154;8.254;2024-01-16T05:12:19;-2.00;99.90
4934;DHT22;2482;49.154;8.254;2024-01-16T05:14:50;-2.00;99.90
4934;DHT22;2482;49.154;8.254;2024-01-16T05:17:18;-2.00;99.90
4934;DHT22;2482;49.154;8.254;2024-01-16T05:19:46;-2.10;99.90
4934;DHT22;2482;49.154;8.254;2024-01-16T05:22:16;-2.10;99.90
4934;DHT22;2482;49.154;8.254;2024-01-16T05:24:43;-2.10;99.90
4934;DHT22;2482;49.154;8.254;2024-01-16T05:27:12;-2.10;99.90
4934;DHT22;2482;49.154;8.254;2024-01-16T05:29:41;-2.20;99.90
4934;DHT22;2482;49.154;8.254;2024-01-16T05:32:15;-2.20;99.90
4934;DHT22;2482;49.154;8.254;2024-01-16T05:34:53;-2.30;99.90
4934;DHT22;2482;49.154;8.254;2024-01-16T05:37:21;-2.40;99.90
4934;DHT22;2482;49.154;8.254;2024-01-16T05:39:49;-2.30;99.90
4934;DHT22;2482;49.154;8.254;2024-01-16T05:42:21;-2.20;99.90
4934;DHT22;2482;49.154;8.254;2024-01-16T05:44:49;-2.40;99.90
4934;DHT22;2482;49.154;8.254;2024-01-16T05:47:24;-2.60;99.90
4934;DHT22;2482;49.154;8.254;2024-01-16T05:50:02;-2.70;99.90
4934;DHT22;2482;49.154;8.254;2024-01-16T05:52:46;-2.50;99.90
4934;DHT22;2482;49.154;8.254;2024-01-16T05:55:14;-2.60;99.90
4934;DHT22;2482;49.154;8.254;2024-01-16T05:57:58;-2.70;99.90
4934;DHT22;2482;49.154;8.254;2024-01-16T06:00:28;-2.50;99.90
4934;DHT22;2482;49.154;8.254;2024-01-16T06:02:56;-2.70;99.90
4934;DHT22;2482;49.154;8.254;2024-01-16T06:05:24;-2.30;99.90
4934;DHT22;2482;49.154;8.254;2024-01-16T06:07:55;-2.60;99.90
4934;DHT22;2482;49.154;8.254;2024-01-16T06:10:28;-2.70;99.90
4934;DHT22;2482;49.154;8.254;2024-01-16T06:13:04;-2.70;99.90
4934;DHT22;2482;49.154;8.254;2024-01-16T06:15:38;-2.80;99.90
4934;DHT22;2482;49.154;8.254;2024-01-16T06:18:30;-2.50;99.90
4934;DHT22;2482;49.154;8.254;2024-01-16T06:21:01;-2.60;99.90
4934;DHT22;2482;49.154;8.254;2024-01-16T06:23:34;-2.80;99.90
4934;DHT22;2482;49.154;8.254;2024-01-16T06:26:11;-2.70;99.90
4934;DHT22;2482;49.154;8.254;2024-01-16T06:28:41;-2.60;99.90
4934;DHT22;2482;49.154;8.254;2024-01-16T06:31:14;-2.60;99.90
4934;DHT22;2482;49.154;8.254;2024-01-16T06:33:51;-2.60;99.90
4934;DHT22;2482;49.154;8.254;2024-01-16T06:36:19;-2.80;99.90
4934;DHT22;2482;49.154;8.254;2024-01-16T06:38:50;-3.00;99.90
4934;DHT22;2482;49.154;8.254;2024-01-16T06:41:23;-3.00;99.90
4934;DHT22;2482;49.154;8.254;2024-01-16T06:43:51;-3.10;99.90
4934;DHT22;2482;49.154;8.254;2024-01-16T06:46:21;-2.70;99.90
4934;DHT22;2482;49.154;8.254;2024-01-16T06:48:51;-2.60;99.90
4934;DHT22;2482;49.154;8.254;2024-01-16T06:51:23;-2.80;99.90
4934;DHT22;2482;49.154;8.254;2024-01-16T06:53:51;-3.00;99.90
4934;DHT22;2482;49.154;8.254;2024-01-16T06:56:24;-2.90;99.90
4934;DHT22;2482;49.154;8.254;2024-01-16T06:58:54;-2.90;99.90
4934;DHT22;2482;49.154;8.254;2024-01-16T07:01:26;-2.80;99.90
4934;DHT22;2482;49.154;8.254;2024-01-16T07:03:59;-2.90;99.90
4934;DHT22;2482;49.154;8.254;2024-01-16T07:06:33;-2.80;99.90
4934;DHT22;2482;49.154;8.254;2024-01-16T07:09:03;-2.80;99.90
4934;DHT22;2482;49.154;8.254;2024-01-16T07:11:34;-2.80;99.90
4934;DHT22;2482;49.154;8.254;2024-01-16T07:14:07;-2.80;99.90
4934;DHT22;2482;49.154;8.254;2024-01-16T07:16:41;-2.80;99.90
4934;DHT22;2482;49.154;8.254;2024-01-16T07:19:14;-2.70;99.90
4934;DHT22;2482;49.154;8.254;2024-01-16T07:21:42;-2.70;99.90
4934;DHT22;2482;49.154;8.254;2024-01-16T07:24:09;-2.50;99.90
4934;DHT22;2482;49.154;8.254;2024-01-16T07:26:44;-2.40;99.90
4934;DHT22;2482;49.154;8.254;2024-01-16T07:29:16;-2.40;99.90
4934;DHT22;2482;49.154;8.254;2024-01-16T07:32:07;-2.40;99.90
4934;DHT22;2482;49.154;8.254;2024-01-16T07:34:46;-2.50;99.90
4934;DHT22;2482;49.154;8.254;2024-01-16T07:37:25;-2.60;99.90
4934;DHT22;2482;49.154;8.254;2024-01-16T07:39:55;-2.50;99.90
4934;DHT22;2482;49.154;8.254;2024-01-16T07:42:29;-2.40;99.90
4934;DHT22;2482;49.154;8.254;2024-01-16T07:45:03;-2.40;99.90
4934;DHT22;2482;49.154;8.254;2024-01-16T07:47:44;-2.50;99.90
4934;DHT22;2482;49.154;8.254;2024-01-16T07:50:14;-2.50;99.90
4934;DHT22;2482;49.154;8.254;2024-01-16T07:52:42;-2.40;99.90
4934;DHT22;2482;49.154;8.254;2024-01-16T07:55:12;-2.30;99.90
4934;DHT22;2482;49.154;8.254;2024-01-16T07:57:42;-2.20;99.90
4934;DHT22;2482;49.154;8.254;2024-01-16T08:00:13;-2.20;99.90
4934;DHT22;2482;49.154;8.254;2024-01-16T08:02:44;-2.30;99.90
4934;DHT22;2482;49.154;8.254;2024-01-16T08:05:12;-2.20;99.90
4934;DHT22;2482;49.154;8.254;2024-01-16T08:07:46;-2.20;99.90
4934;DHT22;2482;49.154;8.254;2024-01-16T08:10:16;-2.20;99.90
4934;DHT22;2482;49.154;8.254;2024-01-16T08:12:45;-2.10;99.90
4934;DHT22;2482;49.154;8.254;2024-01-16T08:15:13;-2.10;99.90
4934;DHT22;2482;49.154;8.254;2024-01-16T08:17:43;-2.20;99.90
4934;DHT22;2482;49.154;8.254;2024-01-16T08:20:18;-2.10;99.90
4934;DHT22;2482;49.154;8.254;2024-01-16T08:22:46;-2.10;99.90
4934;DHT22;2482;49.154;8.254;2024-01-16T08:25:13;-2.00;99.90
4934;DHT22;2482;49.154;8.254;2024-01-16T08:27:44;-2.10;99.90
4934;DHT22;2482;49.154;8.254;2024-01-16T08:30:15;-1.90;99.90
4934;DHT22;2482;49.154;8.254;2024-01-16T08:32:46;-2.00;99.90
4934;DHT22;2482;49.154;8.254;2024-01-16T08:35:16;-2.00;99.90
4934;DHT22;2482;49.154;8.254;2024-01-16T08:37:53;-2.10;99.90
4934;DHT22;2482;49.154;8.254;2024-01-16T08:40:25;-1.90;99.90
4934;DHT22;2482;49.154;8.254;2024-01-16T08:42:56;-1.90;99.90
4934;DHT22;2482;49.154;8.254;2024-01-16T08:45:29;-1.80;99.90
4934;DHT22;2482;49.154;8.254;2024-01-16T08:47:57;-1.60;99.90
4934;DHT22;2482;49.154;8.254;2024-01-16T08:50:29;-1.60;99.90
4934;DHT22;2482;49.154;8.254;2024-01-16T08:53:07;-1.70;99.90
4934;DHT22;2482;49.154;8.254;2024-01-16T08:55:35;-1.60;99.90
4934;DHT22;2482;49.154;8.254;2024-01-16T08:58:08;-1.60;99.90
4934;DHT22;2482;49.154;8.254;2024-01-16T09:00:38;-1.50;99.90
4934;DHT22;2482;49.154;8.254;2024-01-16T09:03:18;-1.50;99.90
4934;DHT22;2482;49.154;8.254;2024-01-16T09:05:48;-1.50;99.90
4934;DHT22;2482;49.154;8.254;2024-01-16T09:08:21;-1.60;99.90
4934;DHT22;2482;49.154;8.254;2024-01-16T09:10:51;-1.50;99.90
4934;DHT22;2482;49.154;8.254;2024-01-16T09:13:24;-1.40;99.90
4934;DHT22;2482;49.154;8.254;2024-01-16T09:15:58;-1.40;99.90
4934;DHT22;2482;49.154;8.254;2024-01-16T09:18:26;-1.30;99.90
4934;DHT22;2482;49.154;8.254;2024-01-16T09:20:56;-1.30;99.90
4934;DHT22;2482;49.154;8.254;2024-01-16T09:23:24;-1.30;99.90
4934;DHT22;2482;49.154;8.254;2024-01-16T09:25:51;-1.30;99.90
4934;DHT22;2482;49.154;8.254;2024-01-16T09:28:19;-1.20;99.90
4934;DHT22;2482;49.154;8.254;2024-01-16T09:30:53;-1.20;99.90
4934;DHT22;2482;49.154;8.254;2024-01-16T09:33:23;-1.30;99.90
4934;DHT22;2482;49.154;8.254;2024-01-16T09:35:57;-1.20;99.90
4934;DHT22;2482;49.154;8.254;2024-01-16T09:38:29;-1.10;99.90
4934;DHT22;2482;49.154;8.254;2024-01-16T09:40:59;-1.10;99.90
4934;DHT22;2482;49.154;8.254;2024-01-16T09:43:31;-1.00;99.90
4934;DHT22;2482;49.154;8.254;2024-01-16T09:46:04;-0.90;99.90
4934;DHT22;2482;49.154;8.254;2024-01-16T09:48:44;-0.90;99.90
4934;DHT22;2482;49.154;8.254;2024-01-16T09:51:12;-0.80;99.90
4934;DHT22;2482;49.154;8.254;2024-01-16T09:53:44;-0.80;99.90
4934;DHT22;2482;49.154;8.254;2024-01-16T09:56:16;-0.70;99.90
4934;DHT22;2482;49.154;8.254;2024-01-16T09:58:52;-0.60;99.90
4934;DHT22;2482;49.154;8.254;2024-01-16T10:01:27;-0.50;99.90
4934;DHT22;2482;49.154;8.254;2024-01-16T10:03:55;-0.30;99.90
4934;DHT22;2482;49.154;8.254;2024-01-16T10:06:27;0.10;99.90
4934;DHT22;2482;49.154;8.254;2024-01-16T10:08:59;0.30;99.90
4934;DHT22;2482;49.154;8.254;2024-01-16T10:11:33;0.40;99.90
4934;DHT22;2482;49.154;8.254;2024-01-16T10:14:06;0.30;99.90
4934;DHT22;2482;49.154;8.254;2024-01-16T10:19:48;0.50;99.90
4934;DHT22;2482;49.154;8.254;2024-01-16T10:22:24;0.50;99.90
4934;DHT22;2482;49.154;8.254;2024-01-16T10:25:13;0.30;99.90
4934;DHT22;2482;49.154;8.254;2024-01-16T10:27:44;0.40;99.90
4934;DHT22;2482;49.154;8.254;2024-01-16T10:30:12;0.40;99.90
4934;DHT22;2482;49.154;8.254;2024-01-16T10:32:43;0.60;99.90
4934;DHT22;2482;49.154;8.254;2024-01-16T10:35:14;0.80;99.90
4934;DHT22;2482;49.154;8.254;2024-01-16T10:37:53;1.00;99.90
4934;DHT22;2482;49.154;8.254;2024-01-16T10:40:22;1.10;99.90
4934;DHT22;2482;49.154;8.254;2024-01-16T10:43:00;1.20;99.90
4934;DHT22;2482;49.154;8.254;2024-01-16T10:45:33;1.10;99.90
4934;DHT22;2482;49.154;8.254;2024-01-16T10:48:04;1.00;99.90
4934;DHT22;2482;49.154;8.254;2024-01-16T10:50:40;1.20;99.90
4934;DHT22;2482;49.154;8.254;2024-01-16T10:53:21;1.50;99.90
4934;DHT22;2482;49.154;8.254;2024-01-16T10:55:51;1.60;99.90
4934;DHT22;2482;49.154;8.254;2024-01-16T10:58:24;1.50;99.90
4934;DHT22;2482;49.154;8.254;2024-01-16T11:00:53;1.30;99.90
4934;DHT22;2482;49.154;8.254;2024-01-16T11:03:29;1.40;99.90
4934;DHT22;2482;49.154;8.254;2024-01-16T11:06:10;1.50;99.90
4934;DHT22;2482;49.154;8.254;2024-01-16T11:08:54;1.30;99.90
4934;DHT22;2482;49.154;8.254;2024-01-16T11:11:27;1.30;99.90
4934;DHT22;2482;49.154;8.254;2024-01-16T11:13:56;1.40;99.90
4934;DHT22;2482;49.154;8.254;2024-01-16T11:16:28;1.50;99.90
4934;DHT22;2482;49.154;8.254;2024-01-16T11:18:59;1.50;99.90
4934;DHT22;2482;49.154;8.254;2024-01-16T11:21:53;1.70;99.90
4934;DHT22;2482;49.154;8.254;2024-01-16T11:24:34;1.80;99.90
4934;DHT22;2482;49.154;8.254;2024-01-16T11:27:04;2.00;99.90
4934;DHT22;2482;49.154;8.254;2024-01-16T11:32:02;2.00;99.90
4934;DHT22;2482;49.154;8.254;2024-01-16T11:34:53;2.10;99.90
4934;DHT22;2482;49.154;8.254;2024-01-16T11:37:43;2.20;99.90
4934;DHT22;2482;49.154;8.254;2024-01-16T11:40:40;2.10;99.90
4934;DHT22;2482;49.154;8.254;2024-01-16T11:43:36;2.40;99.90
4934;DHT22;2482;49.154;8.254;2024-01-16T11:46:12;2.40;99.90
4934;DHT22;2482;49.154;8.254;2024-01-16T11:49:04;2.40;99.90
4934;DHT22;2482;49.154;8.254;2024-01-16T11:51:46;2.50;99.90
4934;DHT22;2482;49.154;8.254;2024-01-16T11:54:14;2.60;99.90
4934;DHT22;2482;49.154;8.254;2024-01-16T12:02:49;2.70;99.90
4934;DHT22;2482;49.154;8.254;2024-01-16T12:05:40;2.80;99.90
4934;DHT22;2482;49.154;8.254;2024-01-16T12:08:21;2.60;99.90
4934;DHT22;2482;49.154;8.254;2024-01-16T12:10:58;2.70;99.90
4934;DHT22;2482;49.154;8.254;2024-01-16T12:13:32;2.70;99.90
4934;DHT22;2482;49.154;8.254;2024-01-16T12:16:19;2.80;99.90
4934;DHT22;2482;49.154;8.254;2024-01-16T12:19:09;2.90;99.90
4934;DHT22;2482;49.154;8.254;2024-01-16T12:21:45;2.90;99.90
4934;DHT22;2482;49.154;8.254;2024-01-16T12:24:18;2.80;99.90
4934;DHT22;2482;49.154;8.254;2024-01-16T12:26:58;2.80;99.90
4934;DHT22;2482;49.154;8.254;2024-01-16T12:29:38;3.00;99.90
4934;DHT22;2482;49.154;8.254;2024-01-16T12:32:15;2.90;99.90
4934;DHT22;2482;49.154;8.254;2024-01-16T12:34:48;2.90;99.90
4934;DHT22;2482;49.154;8.254;2024-01-16T12:37:16;3.10;99.90
4934;DHT22;2482;49.154;8.254;2024-01-16T12:39:50;2.90;99.90
4934;DHT22;2482;49.154;8.254;2024-01-16T12:42:27;2.90;99.90
4934;DHT22;2482;49.154;8.254;2024-01-16T12:45:00;3.00;99.90
4934;DHT22;2482;49.154;8.254;2024-01-16T12:47:35;2.90;99.90
4934;DHT22;2482;49.154;8.254;2024-01-16T12:50:11;2.80;99.90
4934;DHT22;2482;49.154;8.254;2024-01-16T12:53:09;2.70;99.90
4934;DHT22;2482;49.154;8.254;2024-01-16T12:55:45;2.70;99.90
4934;DHT22;2482;49.154;8.254;2024-01-16T12:58:20;2.70;99.90
4934;DHT22;2482;49.154;8.254;2024-01-16T13:00:55;2.70;99.90
4934;DHT22;2482;49.154;8.254;2024-01-16T13:03:26;2.90;99.90
4934;DHT22;2482;49.154;8.254;2024-01-16T13:05:59;2.90;99.90
4934;DHT22;2482;49.154;8.254;2024-01-16T13:08:31;2.80;99.90
4934;DHT22;2482;49.154;8.254;2024-01-16T13:11:05;2.90;99.90
4934;DHT22;2482;49.154;8.254;2024-01-16T13:13:39;2.80;99.90
4934;DHT22;2482;49.154;8.254;2024-01-16T13:16:10;2.70;99.90
4934;DHT22;2482;49.154;8.254;2024-01-16T13:18:41;2.80;99.90
4934;DHT22;2482;49.154;8.254;2024-01-16T13:21:09;3.00;99.90
4934;DHT22;2482;49.154;8.254;2024-01-16T13:23:36;3.20;99.90
4934;DHT22;2482;49.154;8.254;2024-01-16T13:26:12;3.10;99.90
4934;DHT22;2482;49.154;8.254;2024-01-16T13:28:42;3.20;99.90
4934;DHT22;2482;49.154;8.254;2024-01-16T13:31:19;3.20;99.90
4934;DHT22;2482;49.154;8.254;2024-01-16T13:34:02;3.00;99.90
4934;DHT22;2482;49.154;8.254;2024-01-16T13:40:27;3.00;99.90
4934;DHT22;2482;49.154;8.254;2024-01-16T13:43:00;2.90;99.90
4934;DHT22;2482;49.154;8.254;2024-01-16T13:45:31;3.00;99.90
4934;DHT22;2482;49.154;8.254;2024-01-16T13:48:02;3.10;99.90
4934;DHT22;2482;49.154;8.254;2024-01-16T13:50:33;3.10;99.90
4934;DHT22;2482;49.154;8.254;2024-01-16T13:53:27;3.10;99.90
4934;DHT22;2482;49.154;8.254;2024-01-16T13:56:01;3.30;99.90
4934;DHT22;2482;49.154;8.254;2024-01-16T13:58:31;3.20;99.90
4934;DHT22;2482;49.154;8.254;2024-01-16T14:00:58;3.20;99.90
4934;DHT22;2482;49.154;8.254;2024-01-16T14:03:35;3.40;99.90
4934;DHT22;2482;49.154;8.254;2024-01-16T14:06:03;3.30;99.90
4934;DHT22;2482;49.154;8.254;2024-01-16T14:08:40;3.20;99.90
4934;DHT22;2482;49.154;8.254;2024-01-16T14:11:30;3.10;99.90
4934;DHT22;2482;49.154;8.254;2024-01-16T14:14:00;3.20;99.90
4934;DHT22;2482;49.154;8.254;2024-01-16T14:16:28;3.30;99.90
4934;DHT22;2482;49.154;8.254;2024-01-16T14:19:20;3.30;99.90
4934;DHT22;2482;49.154;8.254;2024-01-16T14:21:55;3.10;99.90
4934;DHT22;2482;49.154;8.254;2024-01-16T14:24:32;3.10;99.90
4934;DHT22;2482;49.154;8.254;2024-01-16T14:27:18;2.90;99.90
4934;DHT22;2482;49.154;8.254;2024-01-16T14:30:06;3.00;99.90
4934;DHT22;2482;49.154;8.254;2024-01-16T14:32:54;3.00;99.90
4934;DHT22;2482;49.154;8.254;2024-01-16T14:35:54;2.80;99.90
4934;DHT22;2482;49.154;8.254;2024-01-16T14:38:31;2.80;99.90
4934;DHT22;2482;49.154;8.254;2024-01-16T14:41:00;2.60;99.90
4934;DHT22;2482;49.154;8.254;2024-01-16T14:43:34;2.60;99.90
4934;DHT22;2482;49.154;8.254;2024-01-16T14:46:06;2.50;99.90
4934;DHT22;2482;49.154;8.254;2024-01-16T14:48:51;2.50;99.90
4934;DHT22;2482;49.154;8.254;2024-01-16T14:51:21;2.70;99.90
4934;DHT22;2482;49.154;8.254;2024-01-16T14:53:48;2.90;99.90
4934;DHT22;2482;49.154;8.254;2024-01-16T14:56:25;2.80;99.90
4934;DHT22;2482;49.154;8.254;2024-01-16T14:58:59;2.90;99.90
4934;DHT22;2482;49.154;8.254;2024-01-16T15:01:30;2.70;99.90
4934;DHT22;2482;49.154;8.254;2024-01-16T15:04:02;2.80;99.90
4934;DHT22;2482;49.154;8.254;2024-01-16T15:06:33;2.80;99.90
4934;DHT22;2482;49.154;8.254;2024-01-16T15:09:04;2.70;99.90
4934;DHT22;2482;49.154;8.254;2024-01-16T15:11:31;2.40;99.90
4934;DHT22;2482;49.154;8.254;2024-01-16T15:14:04;2.30;99.90
4934;DHT22;2482;49.154;8.254;2024-01-16T15:16:37;2.10;99.90
4934;DHT22;2482;49.154;8.254;2024-01-16T15:19:09;2.10;99.90
4934;DHT22;2482;49.154;8.254;2024-01-16T15:21:49;2.10;99.90
4934;DHT22;2482;49.154;8.254;2024-01-16T15:24:18;2.10;99.90
4934;DHT22;2482;49.154;8.254;2024-01-16T15:26:54;1.90;99.90
4934;DHT22;2482;49.154;8.254;2024-01-16T15:29:23;1.70;99.90
4934;DHT22;2482;49.154;8.254;2024-01-16T15:31:53;1.60;99.90
4934;DHT22;2482;49.154;8.254;2024-01-16T15:34:23;1.50;99.90
4934;DHT22;2482;49.154;8.254;2024-01-16T15:36:50;1.50;99.90
4934;DHT22;2482;49.154;8.254;2024-01-16T15:39:22;1.40;99.90
4934;DHT22;2482;49.154;8.254;2024-01-16T15:41:59;1.30;99.90
4934;DHT22;2482;49.154;8.254;2024-01-16T15:44:48;1.20;99.90
4934;DHT22;2482;49.154;8.254;2024-01-16T15:47:16;1.20;99.90
4934;DHT22;2482;49.154;8.254;2024-01-16T15:49:47;1.20;99.90
4934;DHT22;2482;49.154;8.254;2024-01-16T15:52:25;1.10;99.90
4934;DHT22;2482;49.154;8.254;2024-01-16T15:55:01;1.00;99.90
4934;DHT22;2482;49.154;8.254;2024-01-16T15:57:44;1.00;99.90
4934;DHT22;2482;49.154;8.254;2024-01-16T16:00:17;0.80;99.90
4934;DHT22;2482;49.154;8.254;2024-01-16T16:02:55;0.60;99.90
4934;DHT22;2482;49.154;8.254;2024-01-16T16:05:29;0.40;99.90
4934;DHT22;2482;49.154;8.254;2024-01-16T16:08:18;0.20;99.90
4934;DHT22;2482;49.154;8.254;2024-01-16T16:10:48;-0.10;99.90
4934;DHT22;2482;49.154;8.254;2024-01-16T16:13:17;-0.30;99.90
4934;DHT22;2482;49.154;8.254;2024-01-16T16:15:45;-0.40;99.90
4934;DHT22;2482;49.154;8.254;2024-01-16T16:18:15;-0.50;99.90
4934;DHT22;2482;49.154;8.254;2024-01-16T16:20:55;-0.60;99.90
4934;DHT22;2482;49.154;8.254;2024-01-16T16:23:23;-0.60;99.90
4934;DHT22;2482;49.154;8.254;2024-01-16T16:25:50;-0.70;99.90
4934;DHT22;2482;49.154;8.254;2024-01-16T16:28:26;-0.70;99.90
4934;DHT22;2482;49.154;8.254;2024-01-16T16:30:57;-0.80;99.90
4934;DHT22;2482;49.154;8.254;2024-01-16T16:33:27;-0.80;99.90
4934;DHT22;2482;49.154;8.254;2024-01-16T16:36:01;-1.00;99.90
4934;DHT22;2482;49.154;8.254;2024-01-16T16:38:28;-1.10;99.90
4934;DHT22;2482;49.154;8.254;2024-01-16T16:41:07;-1.20;99.90
4934;DHT22;2482;49.154;8.254;2024-01-16T16:43:38;-1.40;99.90
4934;DHT22;2482;49.154;8.254;2024-01-16T16:46:13;-1.40;99.90
4934;DHT22;2482;49.154;8.254;2024-01-16T16:48:44;-1.50;99.90
4934;DHT22;2482;49.154;8.254;2024-01-16T16:51:22;-1.50;99.90
4934;DHT22;2482;49.154;8.254;2024-01-16T16:53:58;-1.60;99.90
4934;DHT22;2482;49.154;8.254;2024-01-16T16:56:39;-1.60;99.90
4934;DHT22;2482;49.154;8.254;2024-01-16T16:59:24;-1.70;99.90
4934;DHT22;2482;49.154;8.254;2024-01-16T17:01:55;-1.50;99.90
4934;DHT22;2482;49.154;8.254;2024-01-16T17:04:28;-1.50;99.90